createdAt,value
2017-09-20T00:00:15.673Z,1013.71
2017-09-20T00:00:41.790Z,1013.73
2017-09-20T00:01:07.915Z,1013.71
2017-09-20T00:01:34.035Z,1013.72
2017-09-20T00:02:00.150Z,1013.72
2017-09-20T00:02:26.280Z,1013.69
2017-09-20T00:02:52.420Z,1013.7
2017-09-20T00:03:18.536Z,1013.65
2017-09-20T00:03:44.662Z,1013.68
2017-09-20T00:04:10.801Z,1013.69
2017-09-20T00:04:36.930Z,1013.69
2017-09-20T00:05:03.051Z,1013.68
2017-09-20T00:05:29.167Z,1013.67
2017-09-20T00:05:55.287Z,1013.69
2017-09-20T00:06:21.436Z,1013.71
2017-09-20T00:06:47.553Z,1013.68
2017-09-20T00:07:13.674Z,1013.69
2017-09-20T00:07:39.791Z,1013.67
2017-09-20T00:08:05.906Z,1013.64
2017-09-20T00:08:32.030Z,1013.67
2017-09-20T00:08:58.151Z,1013.63
2017-09-20T00:09:24.274Z,1013.62
2017-09-20T00:09:50.397Z,1013.65
2017-09-20T00:10:17.172Z,1013.64
2017-09-20T00:10:43.295Z,1013.64
2017-09-20T00:11:09.411Z,1013.63
2017-09-20T00:11:35.529Z,1013.59
2017-09-20T00:12:01.652Z,1013.66
2017-09-20T00:12:27.779Z,1013.6
2017-09-20T00:12:53.902Z,1013.58
2017-09-20T00:13:20.015Z,1013.58
2017-09-20T00:13:46.140Z,1013.57
2017-09-20T00:14:12.263Z,1013.6
2017-09-20T00:14:38.379Z,1013.62
2017-09-20T00:15:04.498Z,1013.58
2017-09-20T00:15:30.621Z,1013.55
2017-09-20T00:15:56.745Z,1013.58
2017-09-20T00:16:22.869Z,1013.55
2017-09-20T00:16:48.982Z,1013.56
2017-09-20T00:17:15.108Z,1013.56
2017-09-20T00:17:41.231Z,1013.55
2017-09-20T00:18:07.347Z,1013.49
2017-09-20T00:18:33.469Z,1013.52
2017-09-20T00:18:59.601Z,1013.52
2017-09-20T00:19:25.718Z,1013.53
2017-09-20T00:19:51.844Z,1013.52
2017-09-20T00:20:17.964Z,1013.51
2017-09-20T00:20:44.081Z,1013.53
2017-09-20T00:21:10.208Z,1013.51
2017-09-20T00:21:36.326Z,1013.54
2017-09-20T00:22:02.445Z,1013.53
2017-09-20T00:22:28.565Z,1013.59
2017-09-20T00:22:54.684Z,1013.58
2017-09-20T00:23:20.809Z,1013.59
2017-09-20T00:23:46.933Z,1013.59
2017-09-20T00:24:13.055Z,1013.61
2017-09-20T00:24:39.182Z,1013.58
2017-09-20T00:25:05.297Z,1013.6
2017-09-20T00:25:31.421Z,1013.59
2017-09-20T00:25:57.545Z,1013.63
2017-09-20T00:26:23.668Z,1013.62
2017-09-20T00:26:49.782Z,1013.62
2017-09-20T00:27:15.909Z,1013.62
2017-09-20T00:27:42.023Z,1013.62
2017-09-20T00:28:08.144Z,1013.63
2017-09-20T00:28:34.264Z,1013.63
2017-09-20T00:29:00.382Z,1013.66
2017-09-20T00:29:26.524Z,1013.62
2017-09-20T00:29:52.645Z,1013.63
2017-09-20T00:30:18.765Z,1013.62
2017-09-20T00:30:44.881Z,1013.6
2017-09-20T00:31:11.030Z,1013.59
2017-09-20T00:31:37.152Z,1013.59
2017-09-20T00:32:03.269Z,1013.6
2017-09-20T00:32:29.391Z,1013.57
2017-09-20T00:32:55.511Z,1013.51
2017-09-20T00:33:21.632Z,1013.55
2017-09-20T00:33:47.751Z,1013.52
2017-09-20T00:34:13.869Z,1013.48
2017-09-20T00:34:39.990Z,1013.48
2017-09-20T00:35:06.108Z,1013.48
2017-09-20T00:35:32.236Z,1013.5
2017-09-20T00:35:58.352Z,1013.52
2017-09-20T00:36:24.477Z,1013.48
2017-09-20T00:36:50.599Z,1013.47
2017-09-20T00:37:16.716Z,1013.5
2017-09-20T00:37:42.835Z,1013.5
2017-09-20T00:38:08.961Z,1013.53
2017-09-20T00:38:35.083Z,1013.51
2017-09-20T00:39:01.199Z,1013.51
2017-09-20T00:39:27.326Z,1013.5
2017-09-20T00:39:53.442Z,1013.5
2017-09-20T00:40:19.559Z,1013.51
2017-09-20T00:40:45.683Z,1013.5
2017-09-20T00:41:11.803Z,1013.48
2017-09-20T00:41:37.922Z,1013.5
2017-09-20T00:42:04.049Z,1013.5
2017-09-20T00:42:30.164Z,1013.5
2017-09-20T00:42:56.294Z,1013.52
2017-09-20T00:43:22.417Z,1013.52
2017-09-20T00:43:48.533Z,1013.51
2017-09-20T00:44:14.653Z,1013.49
2017-09-20T00:44:40.777Z,1013.5
2017-09-20T00:45:06.902Z,1013.46
2017-09-20T00:45:33.023Z,1013.48
2017-09-20T00:45:59.146Z,1013.46
2017-09-20T00:46:25.270Z,1013.5
2017-09-20T00:46:51.384Z,1013.52
2017-09-20T00:47:17.499Z,1013.5
2017-09-20T00:47:43.622Z,1013.49
2017-09-20T00:48:09.749Z,1013.52
2017-09-20T00:48:35.897Z,1013.52
2017-09-20T00:49:02.019Z,1013.49
2017-09-20T00:49:28.133Z,1013.52
2017-09-20T00:49:54.257Z,1013.5
2017-09-20T00:50:20.379Z,1013.48
2017-09-20T00:50:46.495Z,1013.5
2017-09-20T00:51:12.618Z,1013.5
2017-09-20T00:51:38.736Z,1013.51
2017-09-20T00:52:04.885Z,1013.47
2017-09-20T00:52:31.007Z,1013.48
2017-09-20T00:52:57.127Z,1013.48
2017-09-20T00:53:23.252Z,1013.47
2017-09-20T00:53:49.372Z,1013.46
2017-09-20T00:54:15.494Z,1013.47
2017-09-20T00:54:41.615Z,1013.48
2017-09-20T00:55:07.733Z,1013.49
2017-09-20T00:55:33.859Z,1013.49
2017-09-20T00:55:59.982Z,1013.47
2017-09-20T00:56:26.096Z,1013.5
2017-09-20T00:56:52.221Z,1013.45
2017-09-20T00:57:18.340Z,1013.44
2017-09-20T00:57:44.489Z,1013.49
2017-09-20T00:58:10.605Z,1013.48
2017-09-20T00:58:36.726Z,1013.46
2017-09-20T00:59:02.850Z,1013.51
2017-09-20T00:59:28.992Z,1013.5
2017-09-20T00:59:55.110Z,1013.48
2017-09-20T01:00:21.229Z,1013.5
2017-09-20T01:00:47.353Z,1013.52
2017-09-20T01:01:13.468Z,1013.48
2017-09-20T01:01:39.601Z,1013.5
2017-09-20T01:02:05.721Z,1013.52
2017-09-20T01:02:31.846Z,1013.51
2017-09-20T01:02:57.966Z,1013.51
2017-09-20T01:03:24.084Z,1013.5
2017-09-20T01:03:50.208Z,1013.53
2017-09-20T01:04:16.331Z,1013.5
2017-09-20T01:04:42.448Z,1013.48
2017-09-20T01:05:08.564Z,1013.49
2017-09-20T01:05:34.694Z,1013.52
2017-09-20T01:06:00.811Z,1013.53
2017-09-20T01:06:26.933Z,1013.49
2017-09-20T01:06:53.072Z,1013.53
2017-09-20T01:07:19.188Z,1013.53
2017-09-20T01:07:45.311Z,1013.5
2017-09-20T01:08:11.443Z,1013.51
2017-09-20T01:08:37.585Z,1013.48
2017-09-20T01:09:03.708Z,1013.47
2017-09-20T01:09:29.824Z,1013.47
2017-09-20T01:09:55.949Z,1013.47
2017-09-20T01:10:22.065Z,1013.46
2017-09-20T01:10:48.188Z,1013.5
2017-09-20T01:11:14.311Z,1013.49
2017-09-20T01:11:40.431Z,1013.47
2017-09-20T01:12:06.546Z,1013.5
2017-09-20T01:12:32.688Z,1013.49
2017-09-20T01:12:58.806Z,1013.49
2017-09-20T01:13:24.927Z,1013.45
2017-09-20T01:13:51.070Z,1013.44
2017-09-20T01:14:17.188Z,1013.45
2017-09-20T01:14:43.313Z,1013.42
2017-09-20T01:15:09.438Z,1013.43
2017-09-20T01:15:35.550Z,1013.41
2017-09-20T01:16:01.667Z,1013.41
2017-09-20T01:16:27.797Z,1013.41
2017-09-20T01:16:53.912Z,1013.41
2017-09-20T01:17:20.035Z,1013.4
2017-09-20T01:17:46.156Z,1013.37
2017-09-20T01:18:12.275Z,1013.38
2017-09-20T01:18:38.413Z,1013.39
2017-09-20T01:19:04.532Z,1013.42
2017-09-20T01:19:30.680Z,1013.39
2017-09-20T01:19:56.803Z,1013.36
2017-09-20T01:20:22.923Z,1013.4
2017-09-20T01:20:49.048Z,1013.38
2017-09-20T01:21:15.167Z,1013.37
2017-09-20T01:21:41.279Z,1013.38
2017-09-20T01:22:07.400Z,1013.36
2017-09-20T01:22:33.525Z,1013.38
2017-09-20T01:22:59.663Z,1013.34
2017-09-20T01:23:25.791Z,1013.35
2017-09-20T01:23:51.905Z,1013.34
2017-09-20T01:24:18.034Z,1013.31
2017-09-20T01:24:44.149Z,1013.34
2017-09-20T01:25:10.280Z,1013.32
2017-09-20T01:25:36.395Z,1013.32
2017-09-20T01:26:02.519Z,1013.31
2017-09-20T01:26:28.644Z,1013.32
2017-09-20T01:26:54.760Z,1013.36
2017-09-20T01:27:20.879Z,1013.38
2017-09-20T01:27:47.003Z,1013.31
2017-09-20T01:28:13.126Z,1013.33
2017-09-20T01:28:39.243Z,1013.37
2017-09-20T01:29:05.365Z,1013.38
2017-09-20T01:29:31.482Z,1013.38
2017-09-20T01:29:57.608Z,1013.4
2017-09-20T01:30:23.726Z,1013.37
2017-09-20T01:30:49.839Z,1013.36
2017-09-20T01:31:15.967Z,1013.37
2017-09-20T01:31:42.083Z,1013.39
2017-09-20T01:32:08.206Z,1013.37
2017-09-20T01:32:34.331Z,1013.35
2017-09-20T01:33:00.446Z,1013.35
2017-09-20T01:33:26.573Z,1013.35
2017-09-20T01:33:52.690Z,1013.36
2017-09-20T01:34:18.810Z,1013.35
2017-09-20T01:34:44.957Z,1013.36
2017-09-20T01:35:11.073Z,1013.35
2017-09-20T01:35:37.194Z,1013.36
2017-09-20T01:36:03.313Z,1013.35
2017-09-20T01:36:29.438Z,1013.34
2017-09-20T01:36:55.556Z,1013.34
2017-09-20T01:37:21.682Z,1013.38
2017-09-20T01:37:47.795Z,1013.37
2017-09-20T01:38:13.924Z,1013.32
2017-09-20T01:38:40.044Z,1013.31
2017-09-20T01:39:06.162Z,1013.35
2017-09-20T01:39:32.289Z,1013.37
2017-09-20T01:39:58.410Z,1013.36
2017-09-20T01:40:24.523Z,1013.33
2017-09-20T01:40:50.663Z,1013.36
2017-09-20T01:41:16.788Z,1013.34
2017-09-20T01:41:42.901Z,1013.34
2017-09-20T01:42:09.026Z,1013.36
2017-09-20T01:42:35.146Z,1013.34
2017-09-20T01:43:01.266Z,1013.37
2017-09-20T01:43:27.407Z,1013.36
2017-09-20T01:43:53.523Z,1013.32
2017-09-20T01:44:19.650Z,1013.32
2017-09-20T01:44:45.772Z,1013.33
2017-09-20T01:45:11.896Z,1013.32
2017-09-20T01:45:38.026Z,1013.35
2017-09-20T01:46:04.145Z,1013.31
2017-09-20T01:46:30.254Z,1013.34
2017-09-20T01:46:56.374Z,1013.34
2017-09-20T01:47:22.498Z,1013.32
2017-09-20T01:47:48.612Z,1013.31
2017-09-20T01:48:14.731Z,1013.31
2017-09-20T01:48:40.856Z,1013.28
2017-09-20T01:49:06.976Z,1013.27
2017-09-20T01:49:33.114Z,1013.23
2017-09-20T01:49:59.241Z,1013.25
2017-09-20T01:50:25.360Z,1013.25
2017-09-20T01:50:51.474Z,1013.28
2017-09-20T01:51:17.599Z,1013.28
2017-09-20T01:51:43.723Z,1013.27
2017-09-20T01:52:09.842Z,1013.29
2017-09-20T01:52:35.967Z,1013.32
2017-09-20T01:53:02.080Z,1013.3
2017-09-20T01:53:28.200Z,1013.3
2017-09-20T01:53:54.323Z,1013.32
2017-09-20T01:54:20.444Z,1013.32
2017-09-20T01:54:46.572Z,1013.32
2017-09-20T01:55:12.689Z,1013.31
2017-09-20T01:55:38.836Z,1013.29
2017-09-20T01:56:04.952Z,1013.32
2017-09-20T01:56:31.075Z,1013.3
2017-09-20T01:56:57.201Z,1013.28
2017-09-20T01:57:23.317Z,1013.26
2017-09-20T01:57:49.465Z,1013.23
2017-09-20T01:58:15.591Z,1013.24
2017-09-20T01:58:41.725Z,1013.23
2017-09-20T01:59:07.854Z,1013.22
2017-09-20T01:59:33.987Z,1013.24
2017-09-20T02:00:00.105Z,1013.21
2017-09-20T02:00:26.236Z,1013.25
2017-09-20T02:00:52.347Z,1013.22
2017-09-20T02:01:18.469Z,1013.23
2017-09-20T02:01:44.593Z,1013.2
2017-09-20T02:02:10.715Z,1013.19
2017-09-20T02:02:36.832Z,1013.21
2017-09-20T02:03:02.960Z,1013.19
2017-09-20T02:03:29.081Z,1013.19
2017-09-20T02:03:55.203Z,1013.18
2017-09-20T02:04:21.318Z,1013.15
2017-09-20T02:04:47.438Z,1013.19
2017-09-20T02:05:13.556Z,1013.17
2017-09-20T02:05:39.671Z,1013.18
2017-09-20T02:06:05.798Z,1013.19
2017-09-20T02:06:31.917Z,1013.15
2017-09-20T02:06:58.038Z,1013.16
2017-09-20T02:07:24.155Z,1013.15
2017-09-20T02:07:50.285Z,1013.19
2017-09-20T02:08:16.397Z,1013.21
2017-09-20T02:08:42.525Z,1013.22
2017-09-20T02:09:08.642Z,1013.24
2017-09-20T02:09:34.764Z,1013.18
2017-09-20T02:10:00.881Z,1013.24
2017-09-20T02:10:27.006Z,1013.2
2017-09-20T02:10:53.127Z,1013.22
2017-09-20T02:11:19.243Z,1013.22
2017-09-20T02:11:45.367Z,1013.24
2017-09-20T02:12:11.482Z,1013.25
2017-09-20T02:12:37.601Z,1013.22
2017-09-20T02:13:03.731Z,1013.24
2017-09-20T02:13:29.848Z,1013.27
2017-09-20T02:13:55.990Z,1013.26
2017-09-20T02:14:22.115Z,1013.23
2017-09-20T02:14:48.233Z,1013.23
2017-09-20T02:15:14.355Z,1013.26
2017-09-20T02:15:40.473Z,1013.25
2017-09-20T02:16:06.598Z,1013.23
2017-09-20T02:16:32.714Z,1013.27
2017-09-20T02:16:58.830Z,1013.25
2017-09-20T02:17:24.952Z,1013.24
2017-09-20T02:17:51.072Z,1013.24
2017-09-20T02:18:17.198Z,1013.26
2017-09-20T02:18:43.337Z,1013.29
2017-09-20T02:19:09.463Z,1013.25
2017-09-20T02:19:35.581Z,1013.29
2017-09-20T02:20:01.707Z,1013.26
2017-09-20T02:20:27.820Z,1013.29
2017-09-20T02:20:53.944Z,1013.27
2017-09-20T02:21:20.064Z,1013.26
2017-09-20T02:21:46.185Z,1013.28
2017-09-20T02:22:12.300Z,1013.29
2017-09-20T02:22:38.424Z,1013.32
2017-09-20T02:23:04.563Z,1013.26
2017-09-20T02:23:30.685Z,1013.32
2017-09-20T02:23:56.811Z,1013.31
2017-09-20T02:24:22.931Z,1013.31
2017-09-20T02:24:49.040Z,1013.3
2017-09-20T02:25:15.164Z,1013.32
2017-09-20T02:25:41.289Z,1013.3
2017-09-20T02:26:07.430Z,1013.33
2017-09-20T02:26:33.552Z,1013.32
2017-09-20T02:26:59.669Z,1013.32
2017-09-20T02:27:25.816Z,1013.32
2017-09-20T02:27:51.930Z,1013.29
2017-09-20T02:28:18.050Z,1013.34
2017-09-20T02:28:44.180Z,1013.26
2017-09-20T02:29:10.298Z,1013.34
2017-09-20T02:29:36.421Z,1013.32
2017-09-20T02:30:02.538Z,1013.33
2017-09-20T02:30:28.657Z,1013.31
2017-09-20T02:30:54.781Z,1013.3
2017-09-20T02:31:20.896Z,1013.36
2017-09-20T02:31:47.020Z,1013.32
2017-09-20T02:32:13.139Z,1013.32
2017-09-20T02:32:39.258Z,1013.35
2017-09-20T02:33:05.384Z,1013.31
2017-09-20T02:33:31.497Z,1013.34
2017-09-20T02:33:57.647Z,1013.36
2017-09-20T02:34:23.759Z,1013.36
2017-09-20T02:34:49.882Z,1013.35
2017-09-20T02:35:16.011Z,1013.4
2017-09-20T02:35:42.126Z,1013.37
2017-09-20T02:36:08.242Z,1013.37
2017-09-20T02:36:34.369Z,1013.35
2017-09-20T02:37:00.480Z,1013.37
2017-09-20T02:37:26.606Z,1013.33
2017-09-20T02:37:52.729Z,1013.32
2017-09-20T02:38:18.848Z,1013.34
2017-09-20T02:38:44.969Z,1013.37
2017-09-20T02:39:11.086Z,1013.34
2017-09-20T02:39:37.205Z,1013.35
2017-09-20T02:40:03.329Z,1013.35
2017-09-20T02:40:29.443Z,1013.33
2017-09-20T02:40:55.569Z,1013.35
2017-09-20T02:41:21.693Z,1013.39
2017-09-20T02:41:47.810Z,1013.3
2017-09-20T02:42:13.934Z,1013.35
2017-09-20T02:42:40.047Z,1013.35
2017-09-20T02:43:06.162Z,1013.36
2017-09-20T02:43:32.288Z,1013.36
2017-09-20T02:43:58.412Z,1013.31
2017-09-20T02:44:24.556Z,1013.37
2017-09-20T02:44:50.681Z,1013.38
2017-09-20T02:45:16.800Z,1013.4
2017-09-20T02:45:42.962Z,1013.41
2017-09-20T02:46:09.080Z,1013.39
2017-09-20T02:46:35.208Z,1013.42
2017-09-20T02:47:01.325Z,1013.41
2017-09-20T02:47:27.441Z,1013.42
2017-09-20T02:47:53.566Z,1013.44
2017-09-20T02:48:19.689Z,1013.44
2017-09-20T02:48:45.809Z,1013.44
2017-09-20T02:49:11.926Z,1013.42
2017-09-20T02:49:38.043Z,1013.45
2017-09-20T02:50:04.169Z,1013.45
2017-09-20T02:50:30.287Z,1013.43
2017-09-20T02:50:56.413Z,1013.43
2017-09-20T02:51:22.536Z,1013.4
2017-09-20T02:51:48.655Z,1013.41
2017-09-20T02:52:14.780Z,1013.41
2017-09-20T02:52:40.902Z,1013.39
2017-09-20T02:53:07.020Z,1013.42
2017-09-20T02:53:33.142Z,1013.43
2017-09-20T02:53:59.258Z,1013.39
2017-09-20T02:54:25.383Z,1013.39
2017-09-20T02:54:51.500Z,1013.44
2017-09-20T02:55:17.617Z,1013.38
2017-09-20T02:55:43.740Z,1013.42
2017-09-20T02:56:09.857Z,1013.41
2017-09-20T02:56:35.979Z,1013.39
2017-09-20T02:57:02.098Z,1013.41
2017-09-20T02:57:28.222Z,1013.41
2017-09-20T02:57:54.338Z,1013.43
2017-09-20T02:58:20.463Z,1013.42
2017-09-20T02:58:46.588Z,1013.43
2017-09-20T02:59:12.704Z,1013.42
2017-09-20T02:59:38.822Z,1013.42
2017-09-20T03:00:04.945Z,1013.44
2017-09-20T03:00:31.067Z,1013.42
2017-09-20T03:00:57.183Z,1013.39
2017-09-20T03:01:23.302Z,1013.37
2017-09-20T03:01:49.428Z,1013.36
2017-09-20T03:02:15.546Z,1013.36
2017-09-20T03:02:41.688Z,1013.39
2017-09-20T03:03:07.812Z,1013.42
2017-09-20T03:03:33.929Z,1013.39
2017-09-20T03:04:00.057Z,1013.37
2017-09-20T03:04:26.172Z,1013.42
2017-09-20T03:04:52.298Z,1013.38
2017-09-20T03:05:18.414Z,1013.4
2017-09-20T03:05:44.533Z,1013.4
2017-09-20T03:06:10.674Z,1013.37
2017-09-20T03:06:36.803Z,1013.41
2017-09-20T03:07:02.941Z,1013.41
2017-09-20T03:07:29.058Z,1013.4
2017-09-20T03:07:55.180Z,1013.39
2017-09-20T03:08:21.300Z,1013.44
2017-09-20T03:08:47.425Z,1013.39
2017-09-20T03:09:13.539Z,1013.43
2017-09-20T03:09:39.656Z,1013.42
2017-09-20T03:10:05.786Z,1013.45
2017-09-20T03:10:31.907Z,1013.5
2017-09-20T03:10:58.019Z,1013.46
2017-09-20T03:11:24.145Z,1013.5
2017-09-20T03:11:50.266Z,1013.51
2017-09-20T03:12:16.410Z,1013.5
2017-09-20T03:12:42.533Z,1013.47
2017-09-20T03:13:08.654Z,1013.47
2017-09-20T03:13:34.765Z,1013.47
2017-09-20T03:14:00.890Z,1013.49
2017-09-20T03:14:27.015Z,1013.44
2017-09-20T03:14:53.139Z,1013.42
2017-09-20T03:15:19.262Z,1013.47
2017-09-20T03:15:45.376Z,1013.4
2017-09-20T03:16:11.517Z,1013.41
2017-09-20T03:16:37.665Z,1013.41
2017-09-20T03:17:03.788Z,1013.41
2017-09-20T03:17:29.905Z,1013.42
2017-09-20T03:17:56.031Z,1013.41
2017-09-20T03:18:22.147Z,1013.45
2017-09-20T03:18:48.271Z,1013.43
2017-09-20T03:19:14.386Z,1013.48
2017-09-20T03:19:40.515Z,1013.46
2017-09-20T03:20:06.628Z,1013.48
2017-09-20T03:20:32.751Z,1013.47
2017-09-20T03:20:58.872Z,1013.46
2017-09-20T03:21:24.988Z,1013.48
2017-09-20T03:21:51.114Z,1013.49
2017-09-20T03:22:17.236Z,1013.48
2017-09-20T03:22:43.351Z,1013.49
2017-09-20T03:23:09.510Z,1013.51
2017-09-20T03:23:35.594Z,1013.49
2017-09-20T03:24:01.713Z,1013.49
2017-09-20T03:24:27.834Z,1013.49
2017-09-20T03:24:53.960Z,1013.47
2017-09-20T03:25:20.077Z,1013.49
2017-09-20T03:25:46.198Z,1013.47
2017-09-20T03:26:12.322Z,1013.46
2017-09-20T03:26:38.438Z,1013.5
2017-09-20T03:27:04.562Z,1013.46
2017-09-20T03:27:30.678Z,1013.48
2017-09-20T03:27:56.795Z,1013.43
2017-09-20T03:28:22.914Z,1013.45
2017-09-20T03:28:49.030Z,1013.41
2017-09-20T03:29:15.155Z,1013.43
2017-09-20T03:29:41.284Z,1013.43
2017-09-20T03:30:07.400Z,1013.42
2017-09-20T03:30:33.526Z,1013.44
2017-09-20T03:30:59.646Z,1013.45
2017-09-20T03:31:25.765Z,1013.47
2017-09-20T03:31:51.889Z,1013.49
2017-09-20T03:32:18.007Z,1013.47
2017-09-20T03:32:44.121Z,1013.49
2017-09-20T03:33:10.248Z,1013.47
2017-09-20T03:33:36.369Z,1013.51
2017-09-20T03:34:02.486Z,1013.52
2017-09-20T03:34:28.609Z,1013.49
2017-09-20T03:34:54.721Z,1013.46
2017-09-20T03:35:20.842Z,1013.49
2017-09-20T03:35:46.962Z,1013.53
2017-09-20T03:36:13.076Z,1013.49
2017-09-20T03:36:39.230Z,1013.52
2017-09-20T03:37:05.351Z,1013.51
2017-09-20T03:37:31.463Z,1013.48
2017-09-20T03:37:57.591Z,1013.49
2017-09-20T03:38:23.711Z,1013.54
2017-09-20T03:38:49.837Z,1013.52
2017-09-20T03:39:15.953Z,1013.51
2017-09-20T03:39:42.071Z,1013.58
2017-09-20T03:40:08.210Z,1013.5
2017-09-20T03:40:34.316Z,1013.54
2017-09-20T03:41:00.444Z,1013.54
2017-09-20T03:41:26.564Z,1013.59
2017-09-20T03:41:52.697Z,1013.59
2017-09-20T03:42:18.820Z,1013.57
2017-09-20T03:42:44.937Z,1013.57
2017-09-20T03:43:11.055Z,1013.57
2017-09-20T03:43:37.183Z,1013.62
2017-09-20T03:44:03.305Z,1013.6
2017-09-20T03:44:29.424Z,1013.61
2017-09-20T03:44:55.546Z,1013.59
2017-09-20T03:45:21.666Z,1013.61
2017-09-20T03:45:47.789Z,1013.58
2017-09-20T03:46:13.902Z,1013.61
2017-09-20T03:46:40.026Z,1013.61
2017-09-20T03:47:06.143Z,1013.58
2017-09-20T03:47:32.265Z,1013.6
2017-09-20T03:47:58.387Z,1013.58
2017-09-20T03:48:24.507Z,1013.62
2017-09-20T03:48:50.629Z,1013.61
2017-09-20T03:49:16.748Z,1013.59
2017-09-20T03:49:42.879Z,1013.57
2017-09-20T03:50:09.011Z,1013.6
2017-09-20T03:50:35.143Z,1013.58
2017-09-20T03:51:01.261Z,1013.62
2017-09-20T03:51:27.373Z,1013.62
2017-09-20T03:51:53.500Z,1013.62
2017-09-20T03:52:19.622Z,1013.6
2017-09-20T03:52:45.740Z,1013.59
2017-09-20T03:53:11.860Z,1013.63
2017-09-20T03:53:37.985Z,1013.57
2017-09-20T03:54:04.098Z,1013.59
2017-09-20T03:54:30.223Z,1013.6
2017-09-20T03:54:56.338Z,1013.58
2017-09-20T03:55:22.461Z,1013.56
2017-09-20T03:55:48.577Z,1013.58
2017-09-20T03:56:14.703Z,1013.56
2017-09-20T03:56:40.820Z,1013.55
2017-09-20T03:57:06.949Z,1013.54
2017-09-20T03:57:33.060Z,1013.52
2017-09-20T03:57:59.179Z,1013.55
2017-09-20T03:58:25.326Z,1013.55
2017-09-20T03:58:51.437Z,1013.51
2017-09-20T03:59:17.561Z,1013.53
2017-09-20T03:59:43.686Z,1013.52
2017-09-20T04:00:09.808Z,1013.52
2017-09-20T04:00:35.931Z,1013.51
2017-09-20T04:01:02.046Z,1013.53
2017-09-20T04:01:28.166Z,1013.48
2017-09-20T04:01:54.306Z,1013.5
2017-09-20T04:02:20.426Z,1013.51
2017-09-20T04:02:46.549Z,1013.49
2017-09-20T04:03:12.673Z,1013.47
2017-09-20T04:03:38.790Z,1013.49
2017-09-20T04:04:04.935Z,1013.51
2017-09-20T04:04:31.050Z,1013.52
2017-09-20T04:04:57.169Z,1013.5
2017-09-20T04:05:23.295Z,1013.47
2017-09-20T04:05:49.435Z,1013.48
2017-09-20T04:06:15.550Z,1013.52
2017-09-20T04:06:41.671Z,1013.49
2017-09-20T04:07:07.797Z,1013.48
2017-09-20T04:07:33.912Z,1013.48
2017-09-20T04:08:00.036Z,1013.46
2017-09-20T04:08:26.160Z,1013.47
2017-09-20T04:08:52.275Z,1013.44
2017-09-20T04:09:18.400Z,1013.45
2017-09-20T04:09:44.517Z,1013.44
2017-09-20T04:10:10.637Z,1013.44
2017-09-20T04:10:36.769Z,1013.46
2017-09-20T04:11:02.879Z,1013.48
2017-09-20T04:11:29.005Z,1013.46
2017-09-20T04:11:55.127Z,1013.44
2017-09-20T04:12:21.246Z,1013.44
2017-09-20T04:12:47.390Z,1013.43
2017-09-20T04:13:13.507Z,1013.43
2017-09-20T04:13:39.633Z,1013.42
2017-09-20T04:14:05.749Z,1013.43
2017-09-20T04:14:31.871Z,1013.45
2017-09-20T04:14:57.994Z,1013.46
2017-09-20T04:15:24.117Z,1013.42
2017-09-20T04:15:50.232Z,1013.43
2017-09-20T04:16:16.357Z,1013.47
2017-09-20T04:16:42.474Z,1013.42
2017-09-20T04:17:08.595Z,1013.48
2017-09-20T04:17:34.710Z,1013.42
2017-09-20T04:18:00.836Z,1013.46
2017-09-20T04:18:26.953Z,1013.49
2017-09-20T04:18:53.078Z,1013.49
2017-09-20T04:19:19.196Z,1013.5
2017-09-20T04:19:45.314Z,1013.47
2017-09-20T04:20:11.440Z,1013.44
2017-09-20T04:20:37.561Z,1013.46
2017-09-20T04:21:03.703Z,1013.46
2017-09-20T04:21:29.817Z,1013.45
2017-09-20T04:21:55.942Z,1013.47
2017-09-20T04:22:22.057Z,1013.43
2017-09-20T04:22:48.178Z,1013.47
2017-09-20T04:23:14.296Z,1013.48
2017-09-20T04:23:40.423Z,1013.45
2017-09-20T04:24:06.541Z,1013.46
2017-09-20T04:24:32.672Z,1013.49
2017-09-20T04:24:58.790Z,1013.46
2017-09-20T04:25:24.927Z,1013.44
2017-09-20T04:25:51.050Z,1013.47
2017-09-20T04:26:17.160Z,1013.47
2017-09-20T04:26:43.285Z,1013.46
2017-09-20T04:27:09.408Z,1013.51
2017-09-20T04:27:35.536Z,1013.46
2017-09-20T04:28:01.642Z,1013.51
2017-09-20T04:28:27.757Z,1013.52
2017-09-20T04:28:53.882Z,1013.5
2017-09-20T04:29:20.010Z,1013.48
2017-09-20T04:29:46.130Z,1013.49
2017-09-20T04:30:12.249Z,1013.48
2017-09-20T04:30:38.396Z,1013.49
2017-09-20T04:31:04.538Z,1013.47
2017-09-20T04:31:30.653Z,1013.47
2017-09-20T04:31:56.781Z,1013.47
2017-09-20T04:32:22.922Z,1013.46
2017-09-20T04:32:49.043Z,1013.49
2017-09-20T04:33:15.159Z,1013.46
2017-09-20T04:33:41.275Z,1013.5
2017-09-20T04:34:07.395Z,1013.52
2017-09-20T04:34:33.520Z,1013.48
2017-09-20T04:34:59.636Z,1013.52
2017-09-20T04:35:25.755Z,1013.51
2017-09-20T04:35:51.879Z,1013.51
2017-09-20T04:36:17.996Z,1013.51
2017-09-20T04:36:44.120Z,1013.52
2017-09-20T04:37:10.247Z,1013.5
2017-09-20T04:37:36.363Z,1013.51
2017-09-20T04:38:02.489Z,1013.5
2017-09-20T04:38:28.605Z,1013.51
2017-09-20T04:38:54.724Z,1013.53
2017-09-20T04:39:20.847Z,1013.53
2017-09-20T04:39:46.962Z,1013.51
2017-09-20T04:40:13.109Z,1013.5
2017-09-20T04:40:39.227Z,1013.53
2017-09-20T04:41:05.348Z,1013.48
2017-09-20T04:41:31.469Z,1013.5
2017-09-20T04:41:57.599Z,1013.48
2017-09-20T04:42:23.720Z,1013.5
2017-09-20T04:42:49.841Z,1013.48
2017-09-20T04:43:15.962Z,1013.48
2017-09-20T04:43:42.082Z,1013.5
2017-09-20T04:44:08.206Z,1013.51
2017-09-20T04:44:34.357Z,1013.48
2017-09-20T04:45:00.449Z,1013.5
2017-09-20T04:45:26.565Z,1013.52
2017-09-20T04:45:52.690Z,1013.58
2017-09-20T04:46:18.807Z,1013.52
2017-09-20T04:46:44.932Z,1013.58
2017-09-20T04:47:11.045Z,1013.57
2017-09-20T04:47:37.165Z,1013.62
2017-09-20T04:48:03.285Z,1013.61
2017-09-20T04:48:29.400Z,1013.62
2017-09-20T04:48:55.528Z,1013.62
2017-09-20T04:49:21.646Z,1013.61
2017-09-20T04:49:47.773Z,1013.6
2017-09-20T04:50:13.891Z,1013.58
2017-09-20T04:50:40.011Z,1013.57
2017-09-20T04:51:06.136Z,1013.59
2017-09-20T04:51:32.261Z,1013.55
2017-09-20T04:51:58.371Z,1013.6
2017-09-20T04:52:24.496Z,1013.57
2017-09-20T04:52:50.611Z,1013.57
2017-09-20T04:53:16.725Z,1013.6
2017-09-20T04:53:42.851Z,1013.61
2017-09-20T04:54:08.994Z,1013.6
2017-09-20T04:54:35.117Z,1013.6
2017-09-20T04:55:01.235Z,1013.61
2017-09-20T04:55:27.356Z,1013.61
2017-09-20T04:55:53.480Z,1013.59
2017-09-20T04:56:19.603Z,1013.61
2017-09-20T04:56:45.720Z,1013.59
2017-09-20T04:57:11.846Z,1013.61
2017-09-20T04:57:37.962Z,1013.64
2017-09-20T04:58:04.083Z,1013.6
2017-09-20T04:58:30.206Z,1013.61
2017-09-20T04:58:56.353Z,1013.61
2017-09-20T04:59:22.480Z,1013.61
2017-09-20T04:59:48.599Z,1013.61
2017-09-20T05:00:14.722Z,1013.6
2017-09-20T05:00:40.838Z,1013.58
2017-09-20T05:01:06.961Z,1013.6
2017-09-20T05:01:33.107Z,1013.62
2017-09-20T05:01:59.225Z,1013.63
2017-09-20T05:02:25.351Z,1013.64
2017-09-20T05:02:51.465Z,1013.64
2017-09-20T05:03:17.584Z,1013.66
2017-09-20T05:03:43.710Z,1013.63
2017-09-20T05:04:09.835Z,1013.65
2017-09-20T05:04:35.951Z,1013.69
2017-09-20T05:05:02.069Z,1013.67
2017-09-20T05:05:28.194Z,1013.66
2017-09-20T05:05:54.309Z,1013.69
2017-09-20T05:06:20.456Z,1013.66
2017-09-20T05:06:46.571Z,1013.67
2017-09-20T05:07:12.698Z,1013.68
2017-09-20T05:07:38.826Z,1013.68
2017-09-20T05:08:04.946Z,1013.67
2017-09-20T05:08:31.064Z,1013.68
2017-09-20T05:08:57.190Z,1013.67
2017-09-20T05:09:23.306Z,1013.7
2017-09-20T05:09:49.431Z,1013.66
2017-09-20T05:10:15.551Z,1013.68
2017-09-20T05:10:41.672Z,1013.69
2017-09-20T05:11:07.791Z,1013.7
2017-09-20T05:11:33.905Z,1013.69
2017-09-20T05:12:00.024Z,1013.71
2017-09-20T05:12:26.147Z,1013.66
2017-09-20T05:12:52.268Z,1013.7
2017-09-20T05:13:18.391Z,1013.7
2017-09-20T05:13:44.508Z,1013.72
2017-09-20T05:14:10.632Z,1013.74
2017-09-20T05:14:36.748Z,1013.7
2017-09-20T05:15:02.873Z,1013.71
2017-09-20T05:15:28.989Z,1013.69
2017-09-20T05:15:55.110Z,1013.71
2017-09-20T05:16:21.236Z,1013.71
2017-09-20T05:16:47.351Z,1013.69
2017-09-20T05:17:13.469Z,1013.69